createdAt,value
2023-02-06T00:01:56.227Z,31.67
2023-02-06T00:04:25.990Z,46.60
2023-02-06T00:06:55.751Z,44.43
2023-02-06T00:09:25.512Z,28.93
2023-02-06T00:11:55.321Z,29.73
2023-02-06T00:14:25.228Z,36.85
2023-02-06T00:16:54.998Z,30.90
2023-02-06T00:19:24.803Z,27.93
2023-02-06T00:21:56.467Z,41.20
2023-02-06T00:24:26.553Z,37.33
2023-02-06T00:26:57.012Z,37.70
2023-02-06T00:29:26.855Z,40.20
2023-02-06T00:31:57.004Z,26.48
2023-02-06T00:34:26.626Z,40.45
2023-02-06T00:36:56.677Z,39.30
2023-02-06T00:39:27.562Z,46.93
2023-02-06T00:41:57.331Z,23.70
2023-02-06T00:44:26.828Z,50.80
2023-02-06T00:46:58.388Z,35.20
2023-02-06T00:49:28.110Z,41.37
2023-02-06T00:51:57.592Z,41.10
2023-02-06T00:54:27.234Z,45.77
2023-02-06T00:56:57.047Z,46.53
2023-02-06T00:59:26.888Z,39.27
2023-02-06T01:01:56.838Z,37.60
2023-02-06T01:04:26.363Z,34.03
2023-02-06T01:06:57.611Z,30.00
2023-02-06T01:09:27.116Z,35.00
2023-02-06T01:11:58.840Z,36.17
2023-02-06T01:14:28.647Z,48.07
2023-02-06T01:16:58.482Z,39.47
2023-02-06T01:19:28.274Z,25.20
2023-02-06T01:21:58.920Z,41.37
2023-02-06T01:24:28.736Z,28.57
2023-02-06T01:26:58.577Z,24.93
2023-02-06T01:29:28.435Z,35.30
2023-02-06T01:31:58.189Z,28.03
2023-02-06T01:34:27.940Z,27.30
2023-02-06T01:36:57.732Z,22.60
2023-02-06T01:39:28.165Z,29.27
2023-02-06T01:41:59.747Z,36.23
2023-02-06T01:44:31.091Z,50.05
2023-02-06T01:47:01.358Z,39.23
2023-02-06T01:49:43.064Z,43.77
2023-02-06T01:52:25.043Z,34.27
2023-02-06T01:54:57.857Z,32.33
2023-02-06T01:57:28.301Z,40.37
2023-02-06T02:00:04.138Z,29.77
2023-02-06T02:02:38.005Z,31.20
2023-02-06T02:05:10.689Z,29.10
2023-02-06T02:07:46.265Z,35.63
2023-02-06T02:10:16.808Z,29.13
2023-02-06T02:12:46.800Z,39.37
2023-02-06T02:15:16.608Z,24.25
2023-02-06T02:17:52.456Z,22.90
2023-02-06T02:20:45.435Z,32.43
2023-02-06T02:23:24.126Z,20.07
2023-02-06T02:26:19.033Z,37.07
2023-02-06T02:29:21.232Z,26.17
2023-02-06T02:32:17.670Z,18.67
2023-02-06T02:35:05.274Z,29.70
2023-02-06T02:37:48.149Z,26.00
2023-02-06T02:40:29.810Z,31.60
2023-02-06T02:43:08.191Z,28.80
2023-02-06T02:45:47.754Z,26.07
2023-02-06T02:48:23.176Z,19.27
2023-02-06T02:50:55.089Z,23.13
2023-02-06T02:53:24.996Z,31.30
2023-02-06T02:55:56.148Z,28.05
2023-02-06T02:58:29.103Z,31.97
2023-02-06T03:01:02.232Z,30.48
2023-02-06T03:03:34.990Z,33.30
2023-02-06T03:06:35.885Z,24.72
2023-02-06T03:09:37.513Z,32.87
2023-02-06T03:12:14.378Z,26.23
2023-02-06T03:14:53.015Z,33.17
2023-02-06T03:17:25.887Z,25.60
2023-02-06T03:19:58.377Z,35.87
2023-02-06T03:22:30.397Z,19.27
2023-02-06T03:25:02.391Z,23.25
2023-02-06T03:27:33.482Z,30.27
2023-02-06T03:30:07.167Z,28.73
2023-02-06T03:32:39.964Z,22.90
2023-02-06T03:35:12.822Z,28.53
2023-02-06T03:37:42.731Z,26.90
2023-02-06T03:40:13.414Z,26.10
2023-02-06T03:42:46.203Z,34.83
2023-02-06T03:45:31.051Z,30.77
2023-02-06T03:48:09.591Z,37.33
2023-02-06T03:50:42.411Z,27.07
2023-02-06T03:53:13.308Z,26.37
2023-02-06T03:55:45.815Z,27.27
2023-02-06T03:58:15.809Z,28.03
2023-02-06T04:00:47.379Z,19.23
2023-02-06T04:03:19.939Z,29.37
2023-02-06T04:05:50.306Z,30.68
2023-02-06T04:08:20.119Z,30.82
2023-02-06T04:10:50.366Z,30.17
2023-02-06T04:13:20.121Z,29.47
2023-02-06T04:15:49.932Z,27.13
2023-02-06T04:18:19.793Z,32.53
2023-02-06T04:20:51.657Z,28.40
2023-02-06T04:23:21.490Z,23.00
2023-02-06T04:25:51.253Z,19.73
2023-02-06T04:28:22.531Z,22.97
2023-02-06T04:30:52.751Z,34.70
2023-02-06T04:33:22.545Z,25.13
2023-02-06T04:35:52.497Z,25.50
2023-02-06T04:38:21.960Z,30.43
2023-02-06T04:40:51.782Z,29.20
2023-02-06T04:43:21.328Z,25.05
2023-02-06T04:45:51.106Z,21.67
2023-02-06T04:48:20.922Z,31.63
2023-02-06T04:50:53.802Z,29.10
2023-02-06T04:53:23.630Z,33.57
2023-02-06T04:55:55.032Z,20.60
2023-02-06T04:58:24.563Z,21.65
2023-02-06T05:00:54.368Z,24.53
2023-02-06T05:03:25.284Z,17.93
2023-02-06T05:05:55.043Z,24.87
2023-02-06T05:08:25.171Z,28.32
2023-02-06T05:10:55.684Z,30.33
2023-02-06T05:13:25.841Z,23.43
2023-02-06T05:15:57.376Z,24.13
2023-02-06T05:18:27.317Z,21.73
2023-02-06T05:20:57.065Z,18.67
2023-02-06T05:23:26.994Z,32.03
2023-02-06T05:25:56.892Z,17.93
2023-02-06T05:28:27.363Z,24.80
2023-02-06T05:31:02.763Z,10.80
2023-02-06T05:33:34.603Z,27.02
2023-02-06T05:36:08.169Z,28.62
2023-02-06T05:38:37.999Z,24.53
2023-02-06T05:41:10.405Z,17.77
2023-02-06T05:43:40.272Z,21.07
2023-02-06T05:46:11.450Z,27.63
2023-02-06T05:48:41.766Z,25.88
2023-02-06T05:51:11.561Z,23.47
2023-02-06T05:53:41.308Z,28.87
2023-02-06T05:56:11.811Z,19.34
2023-02-06T05:58:41.657Z,20.20
2023-02-06T06:01:13.333Z,27.10
2023-02-06T06:03:43.201Z,28.00
2023-02-06T06:06:13.291Z,23.30
2023-02-06T06:08:43.061Z,26.77
2023-02-06T06:11:12.514Z,15.60
2023-02-06T06:13:42.301Z,22.00
2023-02-06T06:16:12.047Z,18.60
2023-02-06T06:18:41.953Z,21.50
2023-02-06T06:21:11.719Z,15.03
2023-02-06T06:23:41.254Z,16.02
2023-02-06T06:26:11.583Z,31.87
2023-02-06T06:28:41.634Z,30.63
2023-02-06T06:31:12.406Z,30.60
2023-02-06T06:33:42.488Z,26.57
2023-02-06T06:36:14.503Z,19.43
2023-02-06T06:38:44.419Z,33.73
2023-02-06T06:41:14.252Z,29.53
2023-02-06T06:43:44.095Z,25.87
2023-02-06T06:46:15.209Z,26.66
2023-02-06T06:48:44.982Z,22.83
2023-02-06T06:51:14.530Z,20.80
2023-02-06T06:53:44.278Z,26.20
2023-02-06T06:56:15.648Z,32.93
2023-02-06T06:58:45.420Z,21.13
2023-02-06T07:01:15.346Z,27.43
2023-02-06T07:03:47.016Z,27.17
2023-02-06T07:06:19.598Z,22.87
2023-02-06T07:08:49.153Z,25.70
2023-02-06T07:11:19.551Z,19.37
2023-02-06T07:13:49.690Z,29.85
2023-02-06T07:16:19.383Z,20.92
2023-02-06T07:18:49.157Z,28.93
2023-02-06T07:21:19.925Z,31.27
2023-02-06T07:23:49.722Z,29.40
2023-02-06T07:26:19.314Z,21.77
2023-02-06T07:28:49.779Z,21.00
2023-02-06T07:31:19.613Z,26.90
2023-02-06T07:33:49.504Z,20.77
2023-02-06T07:36:19.335Z,21.47
2023-02-06T07:38:49.089Z,34.97
2023-02-06T07:41:19.204Z,21.40
2023-02-06T07:43:48.963Z,26.97
2023-02-06T07:46:18.765Z,24.57
2023-02-06T07:48:48.608Z,26.73
2023-02-06T07:51:18.527Z,19.57
2023-02-06T07:53:49.619Z,20.23
2023-02-06T07:56:22.660Z,25.00
2023-02-06T07:58:53.985Z,24.75
2023-02-06T08:01:24.593Z,29.80
2023-02-06T08:03:55.668Z,17.67
2023-02-06T08:06:26.312Z,23.63
2023-02-06T08:08:57.119Z,21.60
2023-02-06T08:11:29.011Z,20.37
2023-02-06T08:13:59.095Z,19.20
2023-02-06T08:16:28.990Z,22.37
2023-02-06T08:18:58.787Z,20.17
2023-02-06T08:21:28.944Z,18.00
2023-02-06T08:24:01.745Z,18.47
2023-02-06T08:26:33.311Z,15.90
2023-02-06T08:29:05.614Z,19.87
2023-02-06T08:31:38.795Z,18.63
2023-02-06T08:34:14.064Z,19.94
2023-02-06T08:36:44.178Z,19.63
2023-02-06T08:39:15.366Z,17.67
2023-02-06T08:41:45.686Z,19.50
2023-02-06T08:44:17.582Z,18.70
2023-02-06T08:46:52.348Z,23.40
2023-02-06T08:49:22.453Z,22.80
2023-02-06T08:51:52.247Z,21.37
2023-02-06T08:54:24.298Z,27.40
2023-02-06T08:56:55.851Z,20.90
2023-02-06T08:59:25.646Z,25.20
2023-02-06T09:01:55.557Z,25.40
2023-02-06T09:04:25.343Z,21.00
2023-02-06T09:06:55.163Z,21.67
2023-02-06T09:09:25.100Z,24.37
2023-02-06T09:11:56.213Z,19.07
2023-02-06T09:14:26.009Z,34.25
2023-02-06T09:16:57.577Z,18.27
2023-02-06T09:19:27.654Z,32.80
2023-02-06T09:21:57.566Z,34.87
2023-02-06T09:24:28.764Z,26.13
2023-02-06T09:27:00.506Z,32.05
2023-02-06T09:29:32.893Z,39.33
2023-02-06T09:32:02.798Z,36.03
2023-02-06T09:34:32.563Z,35.23
2023-02-06T09:37:06.422Z,27.85
2023-02-06T09:39:36.252Z,36.57
2023-02-06T09:42:13.577Z,37.93
2023-02-06T09:44:53.416Z,32.83
2023-02-06T09:47:32.090Z,27.97
2023-02-06T09:50:13.799Z,29.63
2023-02-06T09:52:47.672Z,35.23
2023-02-06T09:55:23.450Z,26.90
2023-02-06T10:00:37.837Z,37.60
2023-02-06T10:03:16.419Z,26.17
2023-02-06T10:06:09.441Z,27.73
2023-02-06T10:08:42.282Z,32.57
2023-02-06T10:11:23.841Z,29.33
2023-02-06T10:14:01.977Z,30.83
2023-02-06T10:16:49.776Z,22.27
2023-02-06T10:19:25.376Z,26.83
2023-02-06T10:22:00.624Z,23.50
2023-02-06T10:24:33.390Z,26.67
2023-02-06T10:27:06.434Z,24.10
2023-02-06T10:29:36.938Z,21.27
2023-02-06T10:32:32.288Z,24.90
2023-02-06T10:35:27.252Z,23.23
2023-02-06T10:38:15.146Z,25.83
2023-02-06T10:40:56.453Z,28.37
2023-02-06T10:43:41.127Z,24.85
2023-02-06T10:46:30.355Z,22.80
2023-02-06T10:49:14.813Z,29.37
2023-02-06T10:51:49.002Z,29.97
2023-02-06T10:54:27.123Z,25.40
2023-02-06T10:56:59.413Z,23.43
2023-02-06T10:59:37.985Z,19.47
2023-02-06T11:02:12.976Z,24.32
2023-02-06T11:04:45.762Z,20.70
2023-02-06T11:07:27.946Z,28.60
2023-02-06T11:09:58.049Z,24.20
2023-02-06T11:12:51.117Z,17.48
2023-02-06T11:15:41.596Z,22.82
2023-02-06T11:18:15.142Z,21.18
2023-02-06T11:20:47.098Z,25.83
2023-02-06T11:23:25.659Z,19.43
2023-02-06T11:26:16.400Z,26.20
2023-02-06T11:28:58.306Z,26.00
2023-02-06T11:31:45.894Z,21.30
2023-02-06T11:34:27.704Z,18.73
2023-02-06T11:37:05.629Z,21.67
2023-02-06T11:39:40.065Z,23.27
2023-02-06T11:42:23.637Z,18.00
2023-02-06T11:44:53.750Z,15.97
2023-02-06T11:47:38.227Z,19.63
2023-02-06T11:50:18.347Z,23.00
2023-02-06T11:52:48.764Z,27.17
2023-02-06T11:55:30.176Z,22.82
2023-02-06T11:58:06.144Z,21.93
2023-02-06T12:00:37.926Z,17.10
2023-02-06T12:03:27.167Z,23.37
2023-02-06T12:06:00.392Z,19.53
2023-02-06T12:08:36.387Z,21.45
2023-02-06T12:11:09.963Z,23.17
2023-02-06T12:13:43.430Z,14.57
2023-02-06T12:16:15.579Z,14.83
2023-02-06T12:18:48.610Z,17.20
2023-02-06T12:21:27.367Z,17.17
2023-02-06T12:24:02.973Z,23.17
2023-02-06T12:26:37.371Z,18.10
2023-02-06T12:29:25.297Z,21.00
2023-02-06T12:32:05.381Z,22.20
2023-02-06T12:34:51.739Z,24.17
2023-02-06T12:39:56.139Z,12.07
2023-02-06T12:42:40.332Z,9.40
2023-02-06T12:45:31.631Z,15.43
2023-02-06T12:48:04.420Z,17.67
2023-02-06T12:50:37.013Z,11.87
2023-02-06T12:53:21.438Z,20.70
2023-02-06T12:56:00.783Z,13.13
2023-02-06T12:58:36.230Z,17.60
2023-02-06T13:01:29.389Z,12.65
2023-02-06T13:03:55.753Z,12.33
2023-02-06T13:06:31.452Z,21.52
2023-02-06T13:09:04.577Z,12.68
2023-02-06T13:11:40.685Z,18.75
2023-02-06T13:14:30.039Z,17.68
2023-02-06T13:17:09.705Z,19.93
2023-02-06T13:19:42.537Z,17.97
2023-02-06T13:22:16.811Z,10.80
2023-02-06T13:24:48.518Z,13.58
2023-02-06T13:27:19.779Z,19.40
2023-02-06T13:29:51.616Z,18.53
2023-02-06T13:32:27.042Z,9.60
2023-02-06T13:35:08.450Z,18.90
2023-02-06T13:37:47.873Z,15.77
2023-02-06T13:40:30.995Z,24.05
2023-02-06T13:43:13.868Z,15.93
2023-02-06T13:45:51.849Z,19.33
2023-02-06T13:48:52.607Z,15.00
2023-02-06T13:51:41.741Z,18.37
2023-02-06T13:54:42.704Z,10.74
2023-02-06T13:57:21.575Z,12.50
2023-02-06T13:59:57.296Z,21.17
2023-02-06T14:02:39.129Z,17.67
2023-02-06T14:05:18.218Z,17.90
2023-02-06T14:08:10.120Z,16.27
2023-02-06T14:11:17.727Z,14.07
2023-02-06T14:13:53.156Z,18.57
2023-02-06T14:16:34.573Z,15.83
2023-02-06T14:19:07.210Z,17.80
2023-02-06T14:21:40.068Z,16.97
2023-02-06T14:24:30.067Z,13.24
2023-02-06T14:27:05.581Z,13.77
2023-02-06T14:29:49.779Z,13.73
2023-02-06T14:32:34.126Z,16.87
2023-02-06T14:35:33.692Z,20.30
2023-02-06T14:38:31.405Z,15.03
2023-02-06T14:41:02.987Z,13.10
2023-02-06T14:43:35.993Z,12.73
2023-02-06T14:46:09.987Z,17.33
2023-02-06T14:48:42.951Z,17.67
2023-02-06T14:51:24.770Z,13.00
2023-02-06T14:53:58.166Z,11.63
2023-02-06T14:56:33.468Z,19.90
2023-02-06T14:59:16.015Z,15.13
2023-02-06T15:01:49.001Z,13.60
2023-02-06T15:04:22.077Z,11.68
2023-02-06T15:06:57.295Z,11.47
2023-02-06T15:09:36.318Z,16.00
2023-02-06T15:12:24.297Z,17.47
2023-02-06T15:14:56.960Z,11.90
2023-02-06T15:17:27.274Z,16.73
2023-02-06T15:19:56.995Z,14.00
2023-02-06T15:22:31.681Z,17.02
2023-02-06T15:25:10.138Z,17.10
2023-02-06T15:27:40.500Z,16.37
2023-02-06T15:30:20.056Z,16.00
2023-02-06T15:32:52.890Z,19.33
2023-02-06T15:35:28.274Z,17.30
2023-02-06T15:37:59.309Z,14.80
2023-02-06T15:40:32.354Z,10.80
2023-02-06T15:43:04.255Z,12.43
2023-02-06T15:45:39.085Z,16.30
2023-02-06T15:48:26.344Z,9.80
2023-02-06T15:51:10.887Z,18.20
2023-02-06T15:53:42.789Z,14.47
2023-02-06T15:56:24.486Z,13.17
2023-02-06T15:59:00.254Z,15.93
2023-02-06T16:01:32.566Z,15.20
2023-02-06T16:04:08.469Z,13.88
2023-02-06T16:06:38.213Z,14.00
2023-02-06T16:09:08.419Z,20.60
2023-02-06T16:11:51.325Z,16.33
2023-02-06T16:14:32.859Z,21.37
2023-02-06T16:17:17.289Z,15.55
2023-02-06T16:19:57.391Z,14.03
2023-02-06T16:22:33.058Z,15.03
2023-02-06T16:25:24.687Z,17.80
2023-02-06T16:27:54.740Z,18.50
2023-02-06T16:30:35.464Z,19.48
2023-02-06T16:33:14.765Z,17.37
2023-02-06T16:35:44.815Z,21.82
2023-02-06T16:38:14.680Z,16.45
2023-02-06T16:40:44.602Z,15.87
2023-02-06T16:43:14.427Z,14.90
2023-02-06T16:45:44.211Z,18.30
2023-02-06T16:48:17.272Z,34.43
2023-02-06T16:50:49.284Z,23.67
2023-02-06T16:53:22.147Z,20.83
2023-02-06T16:55:52.564Z,17.53
2023-02-06T16:58:24.689Z,21.13
2023-02-06T17:00:54.541Z,19.30
2023-02-06T17:03:25.320Z,23.07
2023-02-06T17:05:55.064Z,20.07
2023-02-06T17:08:25.785Z,15.45
2023-02-06T17:10:55.556Z,17.80
2023-02-06T17:13:25.794Z,10.93
2023-02-06T17:15:55.626Z,21.00
2023-02-06T17:18:25.666Z,9.03
2023-02-06T17:20:56.468Z,12.78
2023-02-06T17:23:26.212Z,11.60
2023-02-06T17:25:55.975Z,18.00
2023-02-06T17:28:25.730Z,15.70
2023-02-06T17:30:55.598Z,15.50
2023-02-06T17:33:25.410Z,19.23
2023-02-06T17:35:55.290Z,16.20
2023-02-06T17:38:25.035Z,20.00
2023-02-06T17:40:55.664Z,20.37
2023-02-06T17:43:25.543Z,16.53
2023-02-06T17:45:55.295Z,17.77
2023-02-06T17:48:25.009Z,17.00
2023-02-06T17:50:55.181Z,23.15
2023-02-06T17:53:25.237Z,21.10
2023-02-06T17:55:55.017Z,22.30
2023-02-06T17:58:24.826Z,23.53
2023-02-06T18:00:54.625Z,24.30
2023-02-06T18:03:24.604Z,17.73
2023-02-06T18:06:01.691Z,17.57
2023-02-06T18:08:31.632Z,15.37
2023-02-06T18:11:03.038Z,18.13
2023-02-06T18:13:32.862Z,16.83
2023-02-06T18:16:02.456Z,17.90
2023-02-06T18:18:32.376Z,14.67
2023-02-06T18:21:02.415Z,17.63
2023-02-06T18:23:32.551Z,16.37
2023-02-06T18:26:04.146Z,15.97
2023-02-06T18:28:34.854Z,25.17
2023-02-06T18:31:05.331Z,19.17
2023-02-06T18:33:35.998Z,16.80
2023-02-06T18:36:07.164Z,16.67
2023-02-06T18:38:37.136Z,23.73
2023-02-06T18:41:09.518Z,24.73
2023-02-06T18:43:39.478Z,22.27
2023-02-06T18:46:11.160Z,18.15
2023-02-06T18:48:41.265Z,19.37
2023-02-06T18:51:11.082Z,23.03
2023-02-06T18:53:40.892Z,12.97
2023-02-06T18:56:12.661Z,18.07
2023-02-06T18:58:42.479Z,16.30
2023-02-06T19:01:21.057Z,23.57
2023-02-06T19:03:52.554Z,18.30
2023-02-06T19:06:32.108Z,22.30
2023-02-06T19:09:02.511Z,18.62
2023-02-06T19:11:32.245Z,20.70
2023-02-06T19:14:02.018Z,24.67
2023-02-06T19:16:32.647Z,14.43
2023-02-06T19:19:02.558Z,15.03
2023-02-06T19:21:32.381Z,21.33
2023-02-06T19:24:02.558Z,23.57
2023-02-06T19:26:33.715Z,15.83
2023-02-06T19:29:03.665Z,21.90
2023-02-06T19:31:37.950Z,14.60
2023-02-06T19:34:09.224Z,20.23
2023-02-06T19:36:38.984Z,18.80
2023-02-06T19:39:11.163Z,19.40
2023-02-06T19:41:40.949Z,17.40
2023-02-06T19:44:14.501Z,19.23
2023-02-06T19:46:44.303Z,19.33
2023-02-06T19:49:14.248Z,15.43
2023-02-06T19:51:46.088Z,18.42
2023-02-06T19:54:16.219Z,24.02
2023-02-06T19:56:48.743Z,22.33
2023-02-06T19:59:24.215Z,17.67
2023-02-06T20:01:56.401Z,24.60
2023-02-06T20:04:29.699Z,26.60
2023-02-06T20:06:59.793Z,33.40
2023-02-06T20:09:30.661Z,25.23
2023-02-06T20:12:00.958Z,27.73
2023-02-06T20:14:30.605Z,26.00
2023-02-06T20:17:00.555Z,24.83
2023-02-06T20:19:31.179Z,32.47
2023-02-06T20:22:04.026Z,28.40
2023-02-06T20:24:34.674Z,32.60
2023-02-06T20:27:07.540Z,28.83
2023-02-06T20:29:39.789Z,29.10
2023-02-06T20:32:11.052Z,25.67
2023-02-06T20:34:41.150Z,26.17
2023-02-06T20:37:11.061Z,29.10
2023-02-06T20:39:41.203Z,24.23
2023-02-06T20:42:11.957Z,27.23
2023-02-06T20:44:42.008Z,23.60
2023-02-06T20:47:11.992Z,25.37
2023-02-06T20:49:41.978Z,30.83
2023-02-06T20:52:11.873Z,32.50
2023-02-06T20:54:41.990Z,24.10
2023-02-06T20:57:11.740Z,22.70
2023-02-06T20:59:41.607Z,23.33
2023-02-06T21:02:13.839Z,24.82
2023-02-06T21:04:43.717Z,30.27
2023-02-06T21:07:13.727Z,33.77
2023-02-06T21:09:44.188Z,26.63
2023-02-06T21:12:15.387Z,24.56
2023-02-06T21:14:45.625Z,25.52
2023-02-06T21:17:15.216Z,29.35
2023-02-06T21:19:45.306Z,29.20
2023-02-06T21:22:15.212Z,27.77
2023-02-06T21:24:45.060Z,26.40
2023-02-06T21:27:14.837Z,27.40
2023-02-06T21:29:44.889Z,27.32
2023-02-06T21:32:16.920Z,30.65
2023-02-06T21:34:46.326Z,24.92
2023-02-06T21:37:16.103Z,29.87
2023-02-06T21:39:46.029Z,35.43
2023-02-06T21:42:15.865Z,37.80
2023-02-06T21:44:45.696Z,35.40
2023-02-06T21:47:15.504Z,32.57
2023-02-06T21:49:46.525Z,31.75
2023-02-06T21:52:16.879Z,25.58
2023-02-06T21:54:46.685Z,39.43
2023-02-06T21:57:16.519Z,36.43
2023-02-06T21:59:46.568Z,28.73
2023-02-06T22:02:16.073Z,39.70
2023-02-06T22:04:46.354Z,29.37
2023-02-06T22:07:16.384Z,26.87
2023-02-06T22:09:46.092Z,27.15
2023-02-06T22:12:15.772Z,27.48
2023-02-06T22:14:45.605Z,28.30
2023-02-06T22:17:15.363Z,28.63
2023-02-06T22:19:45.174Z,29.47
2023-02-06T22:22:15.274Z,25.13
2023-02-06T22:24:45.414Z,29.23
2023-02-06T22:27:15.247Z,26.00
2023-02-06T22:29:45.410Z,27.55
2023-02-06T22:32:16.798Z,26.77
2023-02-06T22:34:46.616Z,30.87
2023-02-06T22:37:16.493Z,27.07
2023-02-06T22:39:46.341Z,23.17
2023-02-06T22:42:17.076Z,26.27
2023-02-06T22:44:47.191Z,26.90
2023-02-06T22:47:17.411Z,24.27
2023-02-06T22:49:47.313Z,26.43
2023-02-06T22:52:34.922Z,17.82
2023-02-06T22:55:05.698Z,22.23
2023-02-06T22:57:37.187Z,19.03
2023-02-06T23:00:10.847Z,23.77
2023-02-06T23:02:40.713Z,21.43
2023-02-06T23:05:10.640Z,27.52
2023-02-06T23:07:40.714Z,21.10
2023-02-06T23:10:12.434Z,26.60
2023-02-06T23:12:42.549Z,22.58
2023-02-06T23:15:12.334Z,22.30
2023-02-06T23:17:42.086Z,19.70
2023-02-06T23:20:13.314Z,26.33
2023-02-06T23:22:43.066Z,22.00
2023-02-06T23:25:12.507Z,18.63
2023-02-06T23:27:42.314Z,26.30
2023-02-06T23:30:14.260Z,23.03
2023-02-06T23:32:44.117Z,20.40
2023-02-06T23:35:13.624Z,23.50
2023-02-06T23:37:43.409Z,22.13
2023-02-06T23:40:13.111Z,25.50
2023-02-06T23:42:42.880Z,20.33
2023-02-06T23:45:12.720Z,21.63
2023-02-06T23:47:42.744Z,25.17
2023-02-06T23:50:12.399Z,23.70
2023-02-06T23:52:42.699Z,28.20
2023-02-06T23:55:13.833Z,28.95
2023-02-06T23:57:44.216Z,23.47
